Time;durP1;ratioP1;P1;durP2;ratioP2;P2;SDS_P1;SDS_P2;PMS_P1;PMS_P2;Temp;Humidity;BMP_temperature;BMP_pressure;BME280_temperature;BME280_humidity;BME280_pressure;Samples;Min_cycle;Max_cycle;Signal;HPM_P1;HPM_P2
2023/03/17 00:01:52;;;;;;;;;;;;;;;8.69;79.92;100822.34;4887364;29;20148;-71
2023/03/17 00:04:21;;;;;;;4.70;2.50;;;;;;;8.68;79.99;100822.47;4907586;29;19923;-72
2023/03/17 00:06:48;;;;;;;5.43;2.75;;;;;;;8.68;80.84;100817.22;4902999;29;20051;-70
2023/03/17 00:09:17;;;;;;;5.53;2.90;;;;;;;8.67;80.91;100811.19;4918825;29;20048;-72
2023/03/17 00:11:44;;;;;;;6.20;3.30;;;;;;;8.62;80.68;100808.13;4897693;29;20080;-72
2023/03/17 00:14:11;;;;;;;4.40;2.50;;;;;;;8.64;81.31;100811.44;4905622;29;20079;-72
2023/03/17 00:16:41;;;;;;;4.93;2.95;;;;;;;8.61;81.20;100824.78;4907128;29;20060;-71
2023/03/17 00:19:15;;;;;;;5.45;3.00;;;;;;;8.59;79.69;100826.72;4910035;29;20055;-70
2023/03/17 00:21:44;;;;;;;5.85;2.88;;;;;;;8.57;80.51;100841.72;4912075;29;20048;-70
2023/03/17 00:24:11;;;;;;;;;;;;;;;8.62;81.04;100834.28;4902198;29;20063;-71
2023/03/17 00:26:41;;;;;;;4.70;3.00;;;;;;;8.58;80.03;100819.81;4906705;29;20376;-72
2023/03/17 00:29:08;;;;;;;5.38;2.95;;;;;;;8.56;82.22;100813.91;4912242;29;20083;-71
2023/03/17 00:31:36;;;;;;;3.85;2.50;;;;;;;8.56;81.10;100802.63;4911025;29;20056;-70
2023/03/17 00:34:04;;;;;;;5.05;2.70;;;;;;;8.54;82.36;100810.59;4905003;29;20066;-72
2023/03/17 00:36:32;;;;;;;5.20;2.87;;;;;;;8.53;81.67;100785.41;4909109;29;20056;-70
2023/03/17 00:38:59;;;;;;;4.72;2.80;;;;;;;8.50;81.82;100793.53;4909817;29;20048;-70
2023/03/17 00:41:26;;;;;;;5.18;3.10;;;;;;;8.45;82.64;100796.53;4898430;29;20521;-73
2023/03/17 00:43:52;;;;;;;4.05;2.65;;;;;;;8.36;82.46;100796.47;4907472;29;20055;-72
2023/03/17 00:46:34;;;;;;;6.57;3.08;;;;;;;8.38;82.06;100795.38;4902570;29;20365;-70
2023/03/17 00:49:04;;;;;;;6.80;2.80;;;;;;;8.34;81.73;100786.16;4896177;29;20404;-72
2023/03/17 00:51:31;;;;;;;4.47;2.85;;;;;;;8.35;83.53;100785.22;4900952;29;20481;-70
2023/03/17 00:53:57;;;;;;;5.45;2.60;;;;;;;8.31;82.83;100794.25;4902767;29;20192;-73
2023/03/17 00:56:24;;;;;;;6.00;2.85;;;;;;;8.32;83.25;100794.13;4906250;29;20052;-71
2023/03/17 00:58:51;;;;;;;4.53;2.85;;;;;;;8.29;82.91;100796.16;4904800;29;20083;-70
2023/03/17 01:01:17;;;;;;;3.38;2.30;;;;;;;8.27;82.92;100792.84;4896061;29;20475;-71
2023/03/17 01:03:44;;;;;;;4.72;2.55;;;;;;;8.30;82.81;100805.66;4902914;29;20442;-71
2023/03/17 01:06:13;;;;;;;5.13;2.92;;;;;;;8.29;83.50;100788.31;4910633;29;20478;-72
2023/03/17 01:08:43;;;;;;;7.93;3.05;;;;;;;8.28;84.49;100784.06;4902137;29;20393;-70
2023/03/17 01:11:17;;;;;;;4.32;2.92;;;;;;;8.27;83.44;100778.03;4909802;29;20156;-72
2023/03/17 01:13:46;;;;;;;5.63;2.70;;;;;;;8.24;83.36;100778.28;4910698;29;20079;-71
2023/03/17 01:16:14;;;;;;;4.93;2.33;;;;;;;8.25;83.31;100773.88;4893082;29;20126;-69
2023/03/17 01:18:42;;;;;;;4.45;2.50;;;;;;;8.22;83.51;100772.34;4910254;29;20492;-70
2023/03/17 01:21:08;;;;;;;6.68;2.42;;;;;;;8.20;82.50;100766.44;4906732;29;20075;-69
2023/03/17 01:23:36;;;;;;;3.85;2.30;;;;;;;8.21;82.65;100772.47;4901539;29;20063;-69
2023/03/17 01:26:02;;;;;;;5.05;2.70;;;;;;;8.19;82.72;100763.94;4899848;29;20052;-69
2023/03/17 01:28:29;;;;;;;5.25;2.65;;;;;;;8.16;84.10;100772.88;4913073;29;20058;-71
2023/03/17 01:30:56;;;;;;;3.63;2.33;;;;;;;8.12;83.97;100766.28;4905423;29;20142;-71
2023/03/17 01:33:23;;;;;;;5.53;3.13;;;;;;;8.07;83.16;100773.66;4907608;29;20142;-69
2023/03/17 01:35:50;;;;;;;4.32;2.53;;;;;;;8.06;83.03;100774.66;4906503;29;20086;-71
2023/03/17 01:38:17;;;;;;;5.78;3.00;;;;;;;8.05;82.89;100770.38;4898235;29;20060;-70
2023/03/17 01:40:48;;;;;;;3.88;2.50;;;;;;;8.00;84.19;100770.75;4912264;29;20085;-71
2023/03/17 01:43:22;;;;;;;4.10;2.63;;;;;;;8.00;84.85;100762.94;4903222;29;20147;-71
2023/03/17 01:46:26;;;;;;;6.90;3.00;;;;;;;7.96;87.10;100771.13;4908545;29;20055;-71
2023/03/17 01:49:11;;;;;;;5.40;2.60;;;;;;;7.91;89.04;100766.31;4901103;29;20135;-68
2023/03/17 01:52:00;;;;;;;4.00;2.60;;;;;;;7.84;89.97;100755.56;4900882;29;20051;-69
2023/03/17 01:54:36;;;;;;;4.85;2.38;;;;;;;7.78;89.71;100752.63;4903895;29;20063;-72
2023/03/17 01:57:15;;;;;;;5.07;3.03;;;;;;;7.77;89.46;100759.66;4911472;29;20051;-69
2023/03/17 01:59:52;;;;;;;3.40;2.58;;;;;;;7.72;88.32;100756.59;4890880;29;20236;-68
2023/03/17 02:02:24;;;;;;;5.22;2.88;;;;;;;7.66;90.06;100747.50;4910361;29;20055;-69
2023/03/17 02:04:51;;;;;;;5.72;2.55;;;;;;;7.62;90.46;100756.53;4916405;29;20453;-69
2023/03/17 02:07:21;;;;;;;4.32;2.80;;;;;;;7.60;93.01;100752.41;4900994;29;20048;-71
2023/03/17 02:09:48;;;;;;;4.70;2.50;;;;;;;7.55;93.31;100749.34;4912234;29;20079;-69
2023/03/17 02:12:14;;;;;;;3.95;2.30;;;;;;;7.48;92.47;100742.03;4902792;29;20139;-71
2023/03/17 02:14:41;;;;;;;3.70;2.63;;;;;;;7.44;93.66;100734.59;4907422;29;20067;-71
2023/03/17 02:17:08;;;;;;;5.35;2.60;;;;;;;7.39;94.70;100731.53;4899982;29;20060;-71
2023/03/17 02:19:35;;;;;;;4.25;2.63;;;;;;;7.34;95.82;100739.75;4908328;29;20100;-71
2023/03/17 02:22:02;;;;;;;4.70;3.20;;;;;;;7.30;95.72;100733.94;4911044;29;20592;-71
2023/03/17 02:24:34;;;;;;;6.65;3.13;;;;;;;7.27;95.68;100735.97;4884099;29;20056;-71
2023/03/17 02:27:11;;;;;;;4.47;2.78;;;;;;;7.21;96.28;100732.09;4908053;29;20062;-71
2023/03/17 02:29:38;;;;;;;7.45;3.20;;;;;;;7.14;96.54;100723.16;4900595;29;20464;-72
2023/03/17 02:32:05;;;;;;;4.07;3.00;;;;;;;7.12;96.42;100725.06;4907974;29;20043;-71
2023/03/17 02:34:32;;;;;;;4.75;3.05;;;;;;;7.09;97.43;100720.91;4908042;29;20056;-72
2023/03/17 02:36:59;;;;;;;4.85;2.67;;;;;;;7.09;95.74;100722.69;4913737;29;20051;-71
2023/03/17 02:39:26;;;;;;;4.75;2.72;;;;;;;7.08;96.43;100721.88;4909086;29;20056;-72
2023/03/17 02:41:52;;;;;;;4.03;2.63;;;;;;;7.05;97.82;100726.50;4868872;29;20063;-72
2023/03/17 02:44:19;;;;;;;7.93;3.22;;;;;;;7.04;96.88;100722.25;4911370;29;20469;-71
2023/03/17 02:46:46;;;;;;;7.30;3.13;;;;;;;7.01;97.83;100722.50;4904134;29;20064;-73
2023/03/17 02:49:14;;;;;;;7.13;3.05;;;;;;;7.00;99.40;100724.28;4908467;29;20083;-71
2023/03/17 02:51:40;;;;;;;5.03;2.72;;;;;;;6.94;98.08;100719.56;4901465;29;20139;-72
2023/03/17 02:54:07;;;;;;;4.57;2.67;;;;;;;6.91;99.14;100717.19;4897438;29;20085;-72
2023/03/17 02:56:34;;;;;;;6.28;2.83;;;;;;;6.82;99.78;100721.41;4904679;29;20505;-71
2023/03/17 02:59:02;;;;;;;4.18;3.08;;;;;;;6.82;100.00;100715.31;4902972;29;20090;-72
2023/03/17 03:01:29;;;;;;;5.00;3.00;;;;;;;6.76;100.00;100710.63;4909621;29;20514;-72
2023/03/17 03:03:57;;;;;;;6.27;3.07;;;;;;;6.73;100.00;100712.53;4900958;29;20422;-71
2023/03/17 03:06:23;;;;;;;6.90;3.17;;;;;;;6.70;100.00;100707.56;4909451;29;20672;-71
2023/03/17 03:08:51;;;;;;;6.70;3.33;;;;;;;6.73;100.00;100711.69;4894141;29;20055;-73
2023/03/17 03:11:18;;;;;;;6.18;3.42;;;;;;;6.72;100.00;100713.50;4918116;29;20502;-77
2023/03/17 03:13:45;;;;;;;4.65;3.10;;;;;;;6.73;100.00;100728.16;4911663;29;20060;-75
2023/03/17 03:16:12;;;;;;;4.45;2.92;;;;;;;6.73;100.00;100722.13;4908612;29;20552;-78
2023/03/17 03:18:39;;;;;;;7.03;3.30;;;;;;;6.72;100.00;100720.47;4898821;29;20063;-78
2023/03/17 03:21:06;;;;;;;6.00;3.00;;;;;;;6.71;100.00;100711.81;4903694;29;20151;-77
2023/03/17 03:23:33;;;;;;;7.60;3.50;;;;;;;6.72;99.37;100705.66;4903209;29;20159;-77
2023/03/17 03:26:00;;;;;;;4.80;2.78;;;;;;;6.73;99.51;100699.50;4904780;29;20052;-77
2023/03/17 03:28:26;;;;;;;5.15;2.80;;;;;;;6.76;100.00;100698.41;4899359;29;20579;-77
2023/03/17 03:30:53;;;;;;;4.15;2.72;;;;;;;6.79;97.92;100703.38;4907503;29;20103;-77
2023/03/17 03:33:19;;;;;;;7.38;2.80;;;;;;;6.81;96.38;100706.69;4907519;29;20175;-78
2023/03/17 03:35:46;;;;;;;4.82;3.00;;;;;;;6.86;97.48;100712.38;4908453;29;20074;-77
2023/03/17 03:38:13;;;;;;;3.85;2.63;;;;;;;6.88;97.69;100714.81;4900058;29;20055;-77
2023/03/17 03:40:40;;;;;;;5.18;2.67;;;;;;;6.86;100.00;100712.38;4912616;29;20048;-78
2023/03/17 03:43:06;;;;;;;6.95;2.80;;;;;;;6.85;99.62;100723.72;4905300;29;20087;-75
2023/03/17 03:45:48;;;;;;;8.45;3.38;;;;;;;6.86;100.00;100712.38;4916418;29;20560;-71
2023/03/17 03:48:15;;;;;;;4.32;2.65;;;;;;;6.88;97.51;100725.25;4907045;29;20084;-74
2023/03/17 03:50:42;;;;;;;4.95;2.58;;;;;;;6.92;97.21;100711.03;4904378;29;20056;-72
2023/03/17 03:53:08;;;;;;;4.70;2.83;;;;;;;6.97;96.68;100714.09;4908805;29;20056;-70
2023/03/17 03:55:35;;;;;;;4.38;2.67;;;;;;;6.98;96.74;100720.97;4899016;29;20512;-71
2023/03/17 03:58:02;;;;;;;5.22;2.40;;;;;;;6.99;95.46;100714.78;4914860;29;20123;-70
2023/03/17 04:00:28;;;;;;;5.57;2.28;;;;;;;7.01;95.36;100722.50;4889299;29;20056;-73
2023/03/17 04:02:55;;;;;;;3.92;2.50;;;;;;;6.97;97.83;100721.91;4910726;29;20052;-70
2023/03/17 04:05:22;;;;;;;5.35;2.97;;;;;;;6.92;100.00;100713.66;4912821;29;20817;-70
2023/03/17 04:07:49;;;;;;;5.65;2.90;;;;;;;6.91;99.85;100711.97;4887216;29;20489;-71
2023/03/17 04:10:16;;;;;;;4.63;2.65;;;;;;;6.89;99.26;100722.53;4911301;29;20059;-71
2023/03/17 04:12:43;;;;;;;5.10;2.88;;;;;;;6.91;99.10;100732.84;4902891;29;20142;-71
2023/03/17 04:15:14;;;;;;;4.80;2.63;;;;;;;6.90;98.31;100732.03;4910734;29;20056;-71
2023/03/17 04:17:41;;;;;;;3.60;2.72;;;;;;;6.87;100.00;100724.44;4899988;29;20063;-71
2023/03/17 04:20:08;;;;;;;4.45;2.40;;;;;;;6.80;100.00;100728.50;4894928;29;20052;-72
2023/03/17 04:22:35;;;;;;;5.00;2.75;;;;;;;6.76;99.72;100727.06;4910942;29;20048;-71
2023/03/17 04:25:02;;;;;;;5.55;2.80;;;;;;;6.72;100.00;100738.72;4900004;29;20157;-70
2023/03/17 04:27:28;;;;;;;6.15;2.58;;;;;;;6.70;100.00;100740.59;4909074;29;20147;-72
2023/03/17 04:29:55;;;;;;;4.30;2.60;;;;;;;6.70;98.83;100743.22;4902120;29;20143;-70
2023/03/17 04:32:21;;;;;;;5.15;2.63;;;;;;;6.63;100.00;100737.69;4913194;29;20048;-70
2023/03/17 04:34:50;;;;;;;6.95;2.65;;;;;;;6.62;98.96;100736.00;4906893;29;20106;-71
2023/03/17 04:37:17;;;;;;;3.65;2.47;;;;;;;6.68;98.73;100730.34;4910109;29;20082;-70
2023/03/17 04:39:44;;;;;;;4.93;2.53;;;;;;;6.71;100.00;100729.25;4911595;29;20052;-71
2023/03/17 04:42:11;;;;;;;5.80;2.78;;;;;;;6.76;100.00;100721.03;4901144;29;20048;-70
2023/03/17 04:44:37;;;;;;;4.53;2.60;;;;;;;6.78;98.17;100730.38;4902875;29;20558;-70
2023/03/17 04:47:04;;;;;;;5.22;2.85;;;;;;;6.82;97.14;100734.44;4894571;29;20538;-70
2023/03/17 04:49:30;;;;;;;3.80;2.50;;;;;;;6.86;95.76;100728.00;4923411;29;20052;-70
2023/03/17 04:51:57;;;;;;;7.22;2.80;;;;;;;6.91;96.38;100735.44;4906382;29;20154;-71
2023/03/17 04:54:24;;;;;;;5.70;2.78;;;;;;;6.95;94.79;100734.25;4904188;29;20516;-70
2023/03/17 04:56:51;;;;;;;7.15;2.90;;;;;;;6.99;93.91;100725.22;4910246;29;20048;-70
2023/03/17 04:59:18;;;;;;;6.00;3.33;;;;;;;6.99;93.17;100733.03;4903152;29;20070;-71
2023/03/17 05:01:44;;;;;;;6.13;3.25;;;;;;;6.99;93.63;100737.44;4905510;29;20052;-71
2023/03/17 05:04:11;;;;;;;8.48;3.10;;;;;;;6.98;93.40;100736.63;4903141;29;20346;-71
2023/03/17 05:06:57;;;;;;;4.55;2.67;;;;;;;6.98;92.65;100734.00;4910983;29;20064;-70
2023/03/17 05:09:24;;;;;;;5.95;3.15;;;;;;;6.97;94.51;100740.16;4904814;29;20052;-70
2023/03/17 05:11:51;;;;;;;5.57;3.08;;;;;;;6.91;93.89;100744.09;4910195;29;20052;-70
2023/03/17 05:14:17;;;;;;;5.40;2.97;;;;;;;6.95;94.89;100736.84;4902932;29;20081;-70
2023/03/17 05:16:48;;;;;;;6.07;3.25;;;;;;;6.98;95.15;100734.00;4897760;29;20143;-71
2023/03/17 05:19:15;;;;;;;6.82;3.05;;;;;;;7.00;95.02;100737.31;4917400;29;20505;-70
2023/03/17 05:21:43;;;;;;;8.05;2.53;;;;;;;7.02;93.25;100738.03;4906516;29;20056;-70
2023/03/17 05:24:09;;;;;;;4.60;2.67;;;;;;;7.02;93.37;100738.03;4909378;29;20115;-70
2023/03/17 05:26:36;;;;;;;5.30;2.70;;;;;;;7.04;93.23;100732.69;4897843;29;20051;-72
2023/03/17 05:29:03;;;;;;;7.13;2.95;;;;;;;7.08;92.86;100726.25;4902266;29;20100;-71
2023/03/17 05:31:30;;;;;;;5.13;2.85;;;;;;;7.10;93.25;100725.16;4907887;29;20052;-72
2023/03/17 05:33:57;;;;;;;5.07;2.78;;;;;;;7.12;92.37;100714.63;4905583;29;20411;-73
2023/03/17 05:36:24;;;;;;;3.58;2.50;;;;;;;7.08;91.73;100719.25;4909587;29;20071;-71
2023/03/17 05:38:51;;;;;;;5.72;3.00;;;;;;;7.07;92.72;100712.38;4902201;29;20071;-70
2023/03/17 05:41:18;;;;;;;7.53;2.90;;;;;;;7.09;93.53;100718.28;4905836;29;20059;-70
2023/03/17 05:43:44;;;;;;;5.10;2.85;;;;;;;7.08;92.98;100718.44;4897023;29;20171;-70
2023/03/17 05:46:12;;;;;;;6.00;2.70;;;;;;;7.08;93.37;100726.25;4907459;29;20091;-71
2023/03/17 05:48:39;;;;;;;8.27;3.53;;;;;;;7.06;92.07;100722.94;4907920;29;20086;-71
2023/03/17 05:51:06;;;;;;;8.65;3.20;;;;;;;7.08;92.23;100728.88;4902335;29;20131;-71
2023/03/17 05:53:35;;;;;;;6.32;3.40;;;;;;;7.05;93.08;100722.09;4901808;29;20063;-71
2023/03/17 05:56:02;;;;;;;5.68;2.35;;;;;;;7.06;92.00;100715.13;4906736;29;20441;-71
2023/03/17 05:58:28;;;;;;;8.32;3.20;;;;;;;7.06;92.43;100715.94;4911945;29;20064;-72
2023/03/17 06:00:55;;;;;;;5.60;2.90;;;;;;;7.04;92.03;100707.41;4906621;29;20581;-71
2023/03/17 06:03:22;;;;;;;6.88;3.40;;;;;;;7.05;93.79;100713.47;4908011;29;20425;-70
2023/03/17 06:05:49;;;;;;;6.70;2.83;;;;;;;7.06;93.04;100712.53;4910052;29;20056;-70
2023/03/17 06:08:15;;;;;;;3.17;2.38;;;;;;;7.09;92.81;100710.47;4904484;29;20475;-71
2023/03/17 06:10:42;;;;;;;7.35;2.97;;;;;;;7.10;95.53;100716.53;4902896;29;20509;-71
2023/03/17 06:13:09;;;;;;;10.70;3.33;;;;;;;7.09;93.90;100709.63;4899742;29;20056;-71
2023/03/17 06:15:36;;;;;;;6.80;3.00;;;;;;;7.17;92.45;100709.81;4908015;29;20091;-73
2023/03/17 06:18:06;;;;;;;4.45;2.78;;;;;;;7.16;93.03;100720.41;4889726;29;20047;-70
2023/03/17 06:20:33;;;;;;;5.75;3.05;;;;;;;7.20;93.55;100716.59;4909320;29;20055;-70
2023/03/17 06:23:00;;;;;;;4.25;2.38;;;;;;;7.20;92.49;100714.81;4905007;29;20673;-71
2023/03/17 06:25:34;;;;;;;4.53;2.88;;;;;;;7.22;92.03;100718.13;4897449;29;20052;-71
2023/03/17 06:28:02;;;;;;;5.30;2.70;;;;;;;7.25;92.51;100717.88;4909147;29;20056;-71
2023/03/17 06:30:31;;;;;;;4.95;3.22;;;;;;;7.23;91.48;100718.94;4905412;29;20123;-71
2023/03/17 06:32:58;;;;;;;;;;;;;;;7.27;91.83;100709.91;4914601;29;20424;-71
2023/03/17 06:35:26;;;;;;;6.57;3.10;;;;;;;7.25;92.23;100710.03;4902301;29;19927;-71
2023/03/17 06:37:56;;;;;;;6.72;3.58;;;;;;;7.23;91.44;100714.56;4905204;29;20060;-71
2023/03/17 06:40:22;;;;;;;6.68;3.50;;;;;;;7.24;92.42;100710.97;4887532;29;20138;-70
2023/03/17 06:42:49;;;;;;;5.88;3.33;;;;;;;7.28;92.01;100719.38;4908472;29;20083;-71
2023/03/17 06:45:17;;;;;;;8.45;2.85;;;;;;;7.27;93.64;100717.72;4902012;29;20432;-70
2023/03/17 06:47:43;;;;;;;5.30;2.78;;;;;;;7.33;92.39;100717.22;4909504;29;20048;-71
2023/03/17 06:50:11;;;;;;;5.78;3.17;;;;;;;7.36;92.32;100721.38;4918368;29;20075;-72
2023/03/17 06:52:38;;;;;;;6.82;3.58;;;;;;;7.32;92.38;100718.19;4893904;29;20051;-71
2023/03/17 06:55:08;;;;;;;5.45;2.90;;;;;;;7.32;92.90;100719.00;4911078;29;20052;-72
2023/03/17 06:57:35;;;;;;;5.63;2.83;;;;;;;7.35;93.34;100722.31;4900399;29;20082;-71
2023/03/17 07:00:05;;;;;;;9.10;3.53;;;;;;;7.39;93.85;100721.94;4920989;29;20051;-70
2023/03/17 07:02:34;;;;;;;6.00;3.03;;;;;;;7.40;nan;100707.91;4896736;29;20044;-71
2023/03/17 07:05:02;;;;;;;4.22;2.72;;;;;;;7.47;92.35;100716.91;4886897;29;20737;-71
2023/03/17 07:07:29;;;;;;;5.85;2.83;;;;;;;7.54;92.03;100709.38;4909678;29;20063;-72
2023/03/17 07:09:56;;;;;;;4.43;2.75;;;;;;;7.57;91.74;100714.34;4906052;29;20451;-70
2023/03/17 07:12:22;;;;;;;8.90;3.20;;;;;;;7.63;91.91;100713.00;4915551;29;20544;-70
2023/03/17 07:14:49;;;;;;;5.18;2.90;;;;;;;7.70;90.35;100714.97;4907270;29;20554;-70
2023/03/17 07:17:15;;;;;;;7.95;3.42;;;;;;;7.73;90.66;100719.91;4922884;29;20055;-71
2023/03/17 07:19:43;;;;;;;4.93;2.80;;;;;;;7.80;91.78;100720.22;4915797;29;20059;-70
2023/03/17 07:22:11;;;;;;;5.70;3.42;;;;;;;7.86;90.29;100724.09;4915210;29;20052;-71
2023/03/17 07:24:38;;;;;;;7.25;3.30;;;;;;;7.90;91.31;100730.72;4910589;29;20119;-71
2023/03/17 07:27:05;;;;;;;4.95;3.17;;;;;;;7.98;90.25;100730.88;4909498;29;20078;-72
2023/03/17 07:29:33;;;;;;;4.95;3.00;;;;;;;7.99;89.68;100729.09;4912291;29;20241;-71
2023/03/17 07:32:00;;;;;;;7.18;3.10;;;;;;;8.02;89.89;100734.06;4902494;29;20056;-71
2023/03/17 07:34:27;;;;;;;9.80;3.10;;;;;;;8.07;88.99;100730.06;4912392;29;20070;-74
2023/03/17 07:36:56;;;;;;;5.43;3.53;;;;;;;8.14;88.94;100729.56;4912586;29;20104;-71
2023/03/17 07:39:23;;;;;;;5.43;3.20;;;;;;;8.18;89.95;100721.31;4907879;29;20079;-71
2023/03/17 07:41:53;;;;;;;5.70;3.42;;;;;;;8.27;89.60;100722.28;4913899;29;20052;-72
2023/03/17 07:44:22;;;;;;;7.72;3.20;;;;;;;8.35;89.37;100730.31;4902506;29;20247;-71
2023/03/17 07:46:52;;;;;;;4.60;2.80;;;;;;;8.40;87.88;100722.06;4904550;29;20490;-70
2023/03/17 07:49:19;;;;;;;5.80;2.67;;;;;;;8.54;86.70;100733.94;4906383;29;20059;-69
2023/03/17 07:52:07;;;;;;;6.43;3.10;;;;;;;8.58;85.83;100724.88;4910701;29;20071;-70
2023/03/17 07:54:35;;;;;;;8.52;3.03;;;;;;;8.62;85.45;100721.84;4901151;29;20755;-70
2023/03/17 07:57:02;;;;;;;5.65;3.03;;;;;;;8.71;86.89;100722.81;4905109;29;20082;-70
2023/03/17 07:59:29;;;;;;;4.95;3.00;;;;;;;8.76;84.80;100719.78;4907876;29;20382;-70
2023/03/17 08:01:57;;;;;;;7.20;3.33;;;;;;;8.84;86.26;100710.31;4895922;29;20063;-70
2023/03/17 08:04:26;;;;;;;4.20;2.70;;;;;;;8.94;84.67;100705.06;4918762;29;20104;-71
2023/03/17 08:06:53;;;;;;;6.28;3.20;;;;;;;8.98;83.81;100711.69;4907886;29;20075;-71
2023/03/17 08:09:23;;;;;;;6.15;2.97;;;;;;;9.06;82.71;100713.59;4913159;29;20517;-71
2023/03/17 08:11:49;;;;;;;9.52;2.88;;;;;;;9.12;82.97;100707.00;4904440;29;20143;-71
2023/03/17 08:14:16;;;;;;;7.15;3.03;;;;;;;9.22;84.29;100694.72;4904245;29;20422;-71
2023/03/17 08:16:43;;;;;;;5.22;3.05;;;;;;;9.27;82.12;100695.09;4908499;29;20124;-72
2023/03/17 08:19:09;;;;;;;9.40;3.35;;;;;;;9.29;82.64;100694.00;4927146;29;20075;-73
2023/03/17 08:21:36;;;;;;;11.05;3.67;;;;;;;9.38;81.57;100688.91;4933536;29;20040;-73
2023/03/17 08:24:04;;;;;;;5.95;3.08;;;;;;;9.44;80.71;100686.53;4920937;28;20523;-72
2023/03/17 08:26:31;;;;;;;8.63;3.00;;;;;;;9.47;80.77;100690.66;4895514;29;20062;-71
2023/03/17 08:28:57;;;;;;;5.88;3.00;;;;;;;9.55;82.40;100693.38;4887224;29;20056;-71
2023/03/17 08:31:24;;;;;;;9.73;2.90;;;;;;;9.50;79.09;100700.84;4913708;29;20565;-72
2023/03/17 08:33:53;;;;;;;5.43;3.15;;;;;;;9.57;80.75;100712.41;4913127;29;20052;-70
2023/03/17 08:36:20;;;;;;;;;;;;;;;9.62;79.01;100714.59;4905883;29;20056;-71
2023/03/17 08:38:47;;;;;;;10.82;3.13;;;;;;;9.62;79.80;100717.22;4908680;29;19923;-74
2023/03/17 08:41:17;;;;;;;9.52;3.20;;;;;;;9.67;78.24;100707.94;4900418;29;20056;-71
2023/03/17 08:43:45;;;;;;;4.97;3.28;;;;;;;9.69;79.38;100700.78;4890986;29;20044;-71
2023/03/17 08:46:25;;;;;;;6.57;4.00;;;;;;;9.79;79.06;100698.13;4908708;29;20087;-72
2023/03/17 08:48:55;;;;;;;5.13;3.08;;;;;;;9.82;79.99;100697.84;4910820;29;20126;-72
2023/03/17 08:51:24;;;;;;;6.57;2.80;;;;;;;9.91;80.10;100706.63;4909513;29;20040;-71
2023/03/17 08:53:51;;;;;;;5.65;3.15;;;;;;;9.94;78.15;100708.13;4900369;29;20076;-71
2023/03/17 08:56:18;;;;;;;6.07;2.90;;;;;;;9.96;78.00;100707.03;4906044;29;20144;-72
2023/03/17 08:58:46;;;;;;;6.03;3.05;;;;;;;10.05;78.23;100700.06;4906982;29;20060;-70
2023/03/17 09:01:14;;;;;;;6.13;2.80;;;;;;;10.13;79.59;100696.72;4910537;29;20052;-70
2023/03/17 09:03:41;;;;;;;7.15;3.25;;;;;;;10.19;77.33;100693.50;4904995;29;20048;-71
2023/03/17 09:06:10;;;;;;;6.35;3.25;;;;;;;10.25;77.07;100699.00;4906902;29;20545;-70
2023/03/17 09:08:39;;;;;;;6.63;2.95;;;;;;;10.35;76.32;100701.59;4915876;29;20079;-72
2023/03/17 09:11:07;;;;;;;5.10;2.90;;;;;;;10.41;75.69;100708.88;4905381;29;20040;-71
2023/03/17 09:13:34;;;;;;;5.30;3.00;;;;;;;10.48;76.59;100693.34;4912982;29;20174;-70
2023/03/17 09:16:01;;;;;;;4.80;3.15;;;;;;;10.56;75.19;100688.19;4905540;29;20092;-72
2023/03/17 09:18:30;;;;;;;7.03;3.33;;;;;;;10.65;75.75;100692.53;4911841;29;20087;-71
2023/03/17 09:20:56;;;;;;;;;;;;;;;10.78;74.75;100705.31;4900896;29;20056;-71
2023/03/17 09:23:23;;;;;;;9.43;3.28;;;;;;;10.84;73.66;100696.81;4906737;29;19927;-72
2023/03/17 09:25:51;;;;;;;5.88;2.88;;;;;;;11.01;73.91;100692.50;4902629;29;20052;-73
2023/03/17 09:28:18;;;;;;;5.63;2.97;;;;;;;11.12;74.30;100690.66;4902536;29;20082;-71
2023/03/17 09:30:44;;;;;;;6.90;3.13;;;;;;;11.23;71.18;100703.50;4910970;29;20530;-71
2023/03/17 09:33:12;;;;;;;6.43;3.00;;;;;;;11.27;71.50;100710.09;4903019;29;20063;-71
2023/03/17 09:35:39;;;;;;;4.70;3.05;;;;;;;11.30;70.61;100706.34;4903610;29;20083;-71
2023/03/17 09:38:07;;;;;;;6.40;3.05;;;;;;;11.35;71.42;100712.78;4904406;29;20055;-72
2023/03/17 09:40:47;;;;;;;4.70;2.95;;;;;;;11.45;71.90;100716.13;4909407;29;20055;-71
2023/03/17 09:43:30;;;;;;;5.82;3.03;;;;;;;11.61;71.14;100707.53;4905113;29;20062;-71
2023/03/17 09:46:06;;;;;;;9.82;3.60;;;;;;;11.69;69.24;100701.50;4909766;29;20052;-70
2023/03/17 09:48:45;;;;;;;6.90;3.45;;;;;;;11.89;69.63;100696.84;4904147;29;20505;-71
2023/03/17 09:51:15;;;;;;;4.95;2.90;;;;;;;12.14;70.38;100699.59;4901476;29;20052;-72
2023/03/17 09:54:01;;;;;;;8.05;3.47;;;;;;;12.23;67.59;100699.44;4910118;29;20062;-70
2023/03/17 09:56:31;;;;;;;5.72;3.15;;;;;;;12.34;68.69;100690.41;4902754;29;20052;-73
2023/03/17 09:59:10;;;;;;;4.20;2.90;;;;;;;12.46;67.00;100698.81;4908100;29;20493;-71
2023/03/17 10:01:41;;;;;;;6.82;3.15;;;;;;;12.65;68.51;100695.91;4899232;29;20384;-72
2023/03/17 10:04:09;;;;;;;5.45;3.60;;;;;;;12.77;67.18;100700.84;4902271;29;20489;-73
2023/03/17 10:06:42;;;;;;;5.75;2.90;;;;;;;12.99;67.46;100709.91;4902583;29;20726;-70
2023/03/17 10:09:20;;;;;;;5.65;3.17;;;;;;;13.13;67.35;100713.66;4909703;29;20090;-71
2023/03/17 10:11:53;;;;;;;4.57;2.60;;;;;;;13.33;67.86;100703.63;4909625;29;21362;-71
2023/03/17 10:14:28;;;;;;;7.70;3.22;;;;;;;13.48;65.86;100703.78;4903633;29;20048;-70
2023/03/17 10:17:12;;;;;;;4.88;2.97;;;;;;;13.70;66.02;100702.22;4906028;29;20052;-70
2023/03/17 10:19:51;;;;;;;5.57;2.78;;;;;;;13.78;65.13;100691.66;4892410;29;20417;-70
2023/03/17 10:22:30;;;;;;;6.00;3.00;;;;;;;13.83;63.34;100694.63;4908716;29;20494;-71
2023/03/17 10:25:04;;;;;;;4.30;2.72;;;;;;;13.97;64.30;100695.72;4901429;29;20139;-72
2023/03/17 10:27:35;;;;;;;6.97;3.38;;;;;;;14.12;64.26;100695.81;4908212;29;20083;-71
2023/03/17 10:30:04;;;;;;;5.80;3.30;;;;;;;14.22;63.58;100691.97;4882522;29;20068;-70
2023/03/17 10:32:36;;;;;;;5.78;3.20;;;;;;;14.36;62.37;100695.66;4904182;29;20075;-71
2023/03/17 10:35:04;;;;;;;7.53;3.20;;;;;;;14.41;60.76;100690.69;4903416;29;20052;-70
2023/03/17 10:37:35;;;;;;;9.43;3.20;;;;;;;14.49;59.83;100712.78;4908536;29;20056;-70
2023/03/17 10:40:09;;;;;;;5.78;3.10;;;;;;;14.60;60.97;100707.94;4898046;29;20060;-70
2023/03/17 10:42:46;;;;;;;9.07;3.58;;;;;;;14.86;62.82;100705.91;4893913;29;20706;-72
2023/03/17 10:45:16;;;;;;;7.43;3.42;;;;;;;14.89;58.27;100711.66;4903100;29;20748;-72
2023/03/17 10:47:46;;;;;;;6.55;3.53;;;;;;;14.97;59.76;100708.16;4898857;29;20513;-71
2023/03/17 10:50:27;;;;;;;6.68;3.60;;;;;;;15.03;58.37;100712.72;4909507;29;20080;-72
2023/03/17 10:53:03;;;;;;;5.43;3.08;;;;;;;15.08;59.07;100705.09;4895937;29;20062;-71
2023/03/17 10:55:48;;;;;;;6.00;3.67;;;;;;;15.15;58.38;100706.03;4912323;29;20047;-71
2023/03/17 10:58:18;;;;;;;7.55;3.60;;;;;;;15.08;58.19;100712.19;4899204;29;20064;-71
2023/03/17 11:00:57;;;;;;;5.72;3.13;;;;;;;15.11;58.58;100709.19;4897786;29;20052;-70
2023/03/17 11:03:27;;;;;;;6.13;3.03;;;;;;;15.17;59.53;100704.03;4909498;29;20067;-71
2023/03/17 11:05:59;;;;;;;4.88;3.05;;;;;;;15.23;59.51;100707.78;4902422;29;20083;-72
2023/03/17 11:08:30;;;;;;;9.30;3.38;;;;;;;15.31;58.53;100712.97;4912418;29;20527;-72
2023/03/17 11:10:57;;;;;;;6.32;3.42;;;;;;;15.22;57.08;100701.63;4904850;29;20163;-71
2023/03/17 11:13:29;;;;;;;5.53;3.40;;;;;;;15.27;57.64;100700.28;4903940;29;20441;-72
2023/03/17 11:16:20;;;;;;;6.47;3.53;;;;;;;15.41;58.87;100702.13;4899440;29;20048;-71
2023/03/17 11:18:56;;;;;;;5.57;3.50;;;;;;;15.32;56.86;100713.78;4904513;29;20558;-72
2023/03/17 11:21:30;;;;;;;6.63;3.58;;;;;;;15.48;57.92;100703.03;4903144;29;20048;-73
2023/03/17 11:24:12;;;;;;;5.57;3.35;;;;;;;15.43;56.24;100714.16;4906116;29;20079;-71
2023/03/17 11:26:42;;;;;;;6.95;3.28;;;;;;;15.40;57.39;100722.44;4909461;29;20051;-71
2023/03/17 11:29:14;;;;;;;7.32;3.95;;;;;;;15.29;57.23;100724.69;4903338;29;20056;-72
2023/03/17 11:32:10;;;;;;;10.77;3.85;;;;;;;15.33;57.73;100710.97;4904051;29;20080;-71
2023/03/17 11:34:56;;;;;;;8.38;4.18;;;;;;;15.23;57.30;100713.06;4904052;29;20424;-72
2023/03/17 11:48:27;;;;;;;7.05;3.67;;;;;;;15.00;59.02;100694.59;5028845;23;20113;-70
2023/03/17 11:51:14;;;;;;;6.88;4.03;;;;;;;15.19;58.44;100680.03;4897660;29;20255;-70
2023/03/17 11:54:05;;;;;;;8.50;4.10;;;;;;;15.64;57.68;100683.53;4903025;29;20056;-68